createdAt,value
2018-08-24T00:00:30.012Z,5.13
2018-08-24T00:02:57.802Z,4.60
2018-08-24T00:05:25.677Z,5.80
2018-08-24T00:07:53.424Z,4.90
2018-08-24T00:10:21.241Z,5.63
2018-08-24T00:12:49.048Z,5.83
2018-08-24T00:15:16.926Z,5.47
2018-08-24T00:17:47.015Z,6.57
2018-08-24T00:20:14.779Z,7.37
2018-08-24T00:22:42.784Z,6.70
2018-08-24T00:25:10.680Z,4.93
2018-08-24T00:27:38.487Z,5.10
2018-08-24T00:30:07.135Z,7.13
2018-08-24T00:32:34.895Z,6.07
2018-08-24T00:35:02.748Z,6.20
2018-08-24T00:37:30.632Z,6.83
2018-08-24T00:39:58.476Z,4.77
2018-08-24T00:42:26.224Z,6.03
2018-08-24T00:44:54.028Z,7.13
2018-08-24T00:47:21.795Z,5.20
2018-08-24T00:49:49.600Z,7.00
2018-08-24T00:52:17.498Z,6.07
2018-08-24T00:54:45.236Z,5.53
2018-08-24T00:57:13.055Z,5.13
2018-08-24T00:59:40.875Z,6.63
2018-08-24T01:02:08.687Z,4.20
2018-08-24T01:04:36.795Z,6.37
2018-08-24T01:07:09.819Z,4.23
2018-08-24T01:09:38.677Z,6.13
2018-08-24T01:12:13.892Z,6.53
2018-08-24T01:14:48.472Z,6.93
2018-08-24T01:17:22.104Z,6.57
2018-08-24T01:19:49.957Z,8.43
2018-08-24T01:22:17.802Z,7.23
2018-08-24T01:24:45.588Z,8.23
2018-08-24T01:27:13.549Z,7.50
2018-08-24T01:29:42.323Z,4.37
2018-08-24T01:32:10.159Z,4.97
2018-08-24T01:34:38.270Z,7.50
2018-08-24T01:37:06.273Z,7.23
2018-08-24T01:39:34.111Z,6.03
2018-08-24T01:42:02.080Z,5.40
2018-08-24T01:44:30.047Z,7.77
2018-08-24T01:46:57.898Z,5.50
2018-08-24T01:49:25.918Z,6.17
2018-08-24T01:51:53.711Z,6.73
2018-08-24T01:54:21.575Z,6.67
2018-08-24T01:56:49.431Z,8.97
2018-08-24T01:59:17.248Z,5.50
2018-08-24T02:01:44.993Z,8.30
2018-08-24T02:04:12.799Z,8.33
2018-08-24T02:06:40.627Z,7.00
2018-08-24T02:09:10.636Z,7.43
2018-08-24T02:11:38.502Z,6.67
2018-08-24T02:14:09.164Z,5.40
2018-08-24T02:16:37.942Z,8.47
2018-08-24T02:19:13.924Z,6.43
2018-08-24T02:21:47.521Z,7.83
2018-08-24T02:24:15.312Z,6.90
2018-08-24T02:26:44.165Z,6.83
2018-08-24T02:29:12.028Z,6.30
2018-08-24T02:31:45.760Z,8.27
2018-08-24T02:34:13.808Z,7.57
2018-08-24T02:36:41.851Z,7.23
2018-08-24T02:39:12.720Z,5.97
2018-08-24T02:41:40.788Z,7.13
2018-08-24T02:44:09.159Z,7.33
2018-08-24T02:46:37.262Z,7.73
2018-08-24T02:49:05.159Z,9.83
2018-08-24T02:51:33.044Z,7.63
2018-08-24T02:54:00.939Z,10.60
2018-08-24T02:56:29.305Z,7.13
2018-08-24T02:58:57.100Z,8.03
2018-08-24T03:01:24.979Z,9.80
2018-08-24T03:03:52.846Z,8.83
2018-08-24T03:06:20.607Z,7.20
2018-08-24T03:08:48.392Z,7.40
2018-08-24T03:11:16.224Z,11.93
2018-08-24T03:13:44.051Z,8.60
2018-08-24T03:16:11.902Z,8.47
2018-08-24T03:18:39.619Z,8.93
2018-08-24T03:21:07.402Z,7.53
2018-08-24T03:23:35.207Z,11.23
2018-08-24T03:26:03.040Z,10.43
2018-08-24T03:28:30.809Z,8.30
2018-08-24T03:30:58.637Z,8.70
2018-08-24T03:33:26.443Z,8.27
2018-08-24T03:35:54.196Z,8.23
2018-08-24T03:38:22.066Z,11.60
2018-08-24T03:40:49.911Z,8.20
2018-08-24T03:43:17.926Z,8.83
2018-08-24T03:45:45.768Z,8.70
2018-08-24T03:48:13.495Z,8.80
2018-08-24T03:50:41.367Z,7.37
2018-08-24T03:53:09.276Z,8.77
2018-08-24T03:55:38.243Z,9.40
2018-08-24T03:58:07.288Z,9.28
2018-08-24T04:00:35.124Z,9.10
2018-08-24T04:03:03.442Z,9.80
2018-08-24T04:05:31.291Z,10.47
2018-08-24T04:07:59.173Z,9.30
2018-08-24T04:10:27.006Z,9.80
2018-08-24T04:12:55.843Z,8.57
2018-08-24T04:15:23.719Z,12.07
2018-08-24T04:17:51.499Z,12.33
2018-08-24T04:20:19.371Z,13.30
2018-08-24T04:22:47.239Z,9.53
2018-08-24T04:25:15.055Z,8.73
2018-08-24T04:27:42.875Z,9.63
2018-08-24T04:30:11.060Z,15.47
2018-08-24T04:32:38.923Z,9.93
2018-08-24T04:35:06.948Z,12.50
2018-08-24T04:37:35.059Z,11.43
2018-08-24T04:40:03.293Z,9.97
2018-08-24T04:42:31.035Z,11.60
2018-08-24T04:44:58.807Z,9.83
2018-08-24T04:47:26.616Z,11.93
2018-08-24T04:49:54.395Z,10.87
2018-08-24T04:52:22.626Z,8.97
2018-08-24T04:54:51.411Z,12.37
2018-08-24T04:57:19.216Z,11.43
2018-08-24T04:59:46.989Z,12.93
2018-08-24T05:02:14.827Z,15.43
2018-08-24T05:04:42.628Z,10.90
2018-08-24T05:07:10.416Z,12.30
2018-08-24T05:09:38.348Z,12.03
2018-08-24T05:12:06.206Z,12.87
2018-08-24T05:14:34.010Z,15.77
2018-08-24T05:17:01.808Z,12.23
2018-08-24T05:19:29.578Z,11.00
2018-08-24T05:21:57.372Z,10.60
2018-08-24T05:24:25.224Z,10.03
2018-08-24T05:26:53.069Z,10.90
2018-08-24T05:29:20.852Z,13.43
2018-08-24T05:31:48.664Z,14.30
2018-08-24T05:34:16.376Z,10.17
2018-08-24T05:36:44.215Z,11.43
2018-08-24T05:39:12.056Z,8.97
2018-08-24T05:41:39.831Z,8.93
2018-08-24T05:44:07.628Z,10.30
2018-08-24T05:46:35.439Z,10.57
2018-08-24T05:49:03.329Z,10.27
2018-08-24T05:51:31.146Z,11.00
2018-08-24T05:53:59.020Z,11.80
2018-08-24T05:56:26.856Z,11.13
2018-08-24T05:58:54.731Z,8.90
2018-08-24T06:01:22.531Z,9.00
2018-08-24T06:03:50.355Z,7.33
2018-08-24T06:06:18.100Z,8.50
2018-08-24T06:08:50.498Z,7.47
2018-08-24T06:11:18.255Z,8.37
2018-08-24T06:13:46.032Z,7.57
2018-08-24T06:16:13.824Z,10.10
2018-08-24T06:18:41.732Z,9.53
2018-08-24T06:21:09.523Z,9.77
2018-08-24T06:23:37.334Z,11.13
2018-08-24T06:26:05.211Z,5.67
2018-08-24T06:28:32.975Z,7.43
2018-08-24T06:31:00.745Z,8.47
2018-08-24T06:33:28.497Z,4.47
2018-08-24T06:35:56.272Z,3.50
2018-08-24T06:38:24.038Z,11.23
2018-08-24T06:40:51.835Z,5.97
2018-08-24T06:43:19.754Z,2.67
2018-08-24T06:45:47.508Z,2.73
2018-08-24T06:48:15.385Z,2.30
2018-08-24T06:50:43.135Z,3.63
2018-08-24T06:53:11.024Z,2.93
2018-08-24T06:55:39.058Z,2.40
2018-08-24T06:58:07.091Z,2.00
2018-08-24T07:00:35.019Z,1.53
2018-08-24T07:03:03.057Z,1.50
2018-08-24T07:05:31.264Z,2.53
2018-08-24T07:07:59.200Z,2.77
2018-08-24T07:10:27.319Z,3.83
2018-08-24T07:12:55.097Z,1.23
2018-08-24T07:15:23.008Z,1.63
2018-08-24T07:17:56.587Z,1.10
2018-08-24T07:20:24.736Z,1.27
2018-08-24T07:22:52.748Z,1.67
2018-08-24T07:25:20.924Z,2.27
2018-08-24T07:27:48.839Z,1.60
2018-08-24T07:30:16.615Z,3.53
2018-08-24T07:32:44.459Z,1.00
2018-08-24T07:35:12.871Z,1.00
2018-08-24T07:37:40.611Z,1.33
2018-08-24T07:40:08.440Z,1.30
2018-08-24T07:42:36.227Z,2.33
2018-08-24T07:45:04.061Z,1.40
2018-08-24T07:47:31.843Z,1.63
2018-08-24T07:49:59.576Z,1.60
2018-08-24T07:52:27.544Z,1.10
2018-08-24T07:54:55.451Z,3.60
2018-08-24T07:57:23.526Z,1.40
2018-08-24T07:59:51.473Z,3.53
2018-08-24T08:02:22.399Z,4.03
2018-08-24T08:04:50.231Z,2.20
2018-08-24T08:07:18.028Z,2.13
2018-08-24T08:09:46.066Z,1.70
2018-08-24T08:12:13.889Z,3.70
2018-08-24T08:14:47.258Z,3.13
2018-08-24T08:17:15.076Z,3.07
2018-08-24T08:19:42.783Z,2.73
2018-08-24T08:22:10.575Z,2.77
2018-08-24T08:24:38.424Z,1.67
2018-08-24T08:27:06.192Z,3.30
2018-08-24T08:29:39.658Z,2.90
2018-08-24T08:32:07.327Z,2.10
2018-08-24T08:34:39.639Z,1.80
2018-08-24T08:37:07.432Z,1.77
2018-08-24T08:39:35.215Z,1.90
2018-08-24T08:42:03.000Z,1.80
2018-08-24T08:44:30.791Z,1.97
2018-08-24T08:46:58.659Z,2.90
2018-08-24T08:49:26.428Z,4.10
2018-08-24T08:51:54.211Z,4.83
2018-08-24T08:54:22.040Z,4.43
2018-08-24T08:56:49.743Z,6.27
2018-08-24T08:59:17.601Z,5.47
2018-08-24T09:01:45.469Z,6.97
2018-08-24T09:04:13.252Z,7.07
2018-08-24T09:06:41.014Z,5.17
2018-08-24T09:09:09.344Z,6.73
2018-08-24T09:11:37.060Z,5.57
2018-08-24T09:14:04.943Z,5.53
2018-08-24T09:16:32.707Z,5.63
2018-08-24T09:19:06.121Z,5.00
2018-08-24T09:21:39.695Z,5.37
2018-08-24T09:24:12.993Z,5.07
2018-08-24T09:26:46.392Z,6.63
2018-08-24T09:29:20.067Z,7.27
2018-08-24T09:31:47.884Z,5.50
2018-08-24T09:34:15.735Z,6.07
2018-08-24T09:36:43.555Z,8.97
2018-08-24T09:39:11.373Z,6.00
2018-08-24T09:41:39.136Z,7.90
2018-08-24T09:44:06.935Z,7.13
2018-08-24T09:46:40.540Z,7.90
2018-08-24T09:49:14.153Z,8.37
2018-08-24T09:51:41.876Z,6.83
2018-08-24T09:54:09.728Z,8.37
2018-08-24T09:56:38.835Z,7.27
2018-08-24T09:59:06.732Z,7.23
2018-08-24T10:01:40.197Z,7.67
2018-08-24T10:04:13.673Z,8.50
2018-08-24T10:06:47.221Z,7.97
2018-08-24T10:09:15.518Z,9.50
2018-08-24T10:11:43.429Z,8.07
2018-08-24T10:14:11.524Z,6.60
2018-08-24T10:16:39.353Z,8.33
2018-08-24T10:19:09.907Z,7.60
2018-08-24T10:21:37.788Z,10.53
2018-08-24T10:24:06.893Z,6.67
2018-08-24T10:26:34.730Z,9.27
2018-08-24T10:29:03.064Z,7.30
2018-08-24T10:31:30.880Z,7.30
2018-08-24T10:33:58.773Z,7.33
2018-08-24T10:36:26.555Z,6.67
2018-08-24T10:38:54.419Z,10.40
2018-08-24T10:41:22.162Z,6.50
2018-08-24T10:43:49.871Z,7.10
2018-08-24T10:46:17.651Z,6.03
2018-08-24T10:48:45.464Z,6.13
2018-08-24T10:51:13.284Z,6.27
2018-08-24T10:53:41.099Z,5.60
2018-08-24T10:56:08.994Z,7.60
2018-08-24T10:58:36.703Z,7.50
2018-08-24T11:01:04.596Z,7.23
2018-08-24T11:03:32.407Z,8.00
2018-08-24T11:06:00.147Z,5.73
2018-08-24T11:08:28.014Z,9.60
2018-08-24T11:10:55.816Z,9.93
2018-08-24T11:13:23.588Z,5.97
2018-08-24T11:15:51.742Z,6.77
2018-08-24T11:18:19.503Z,5.27
2018-08-24T11:20:47.412Z,8.10
2018-08-24T11:23:15.310Z,9.10
2018-08-24T11:25:43.211Z,6.73
2018-08-24T11:28:11.048Z,6.00
2018-08-24T11:30:39.102Z,7.27
2018-08-24T11:33:06.948Z,6.43
2018-08-24T11:35:34.779Z,7.27
2018-08-24T11:38:02.791Z,4.87
2018-08-24T11:40:32.291Z,5.27
2018-08-24T11:43:00.175Z,4.40
2018-08-24T11:45:28.255Z,4.13
2018-08-24T11:47:56.252Z,4.87
2018-08-24T11:50:23.976Z,5.87
2018-08-24T11:52:54.380Z,6.60
2018-08-24T11:55:22.259Z,5.30
2018-08-24T11:57:50.119Z,4.83
2018-08-24T12:00:18.034Z,4.13
2018-08-24T12:02:45.787Z,7.17
2018-08-24T12:05:13.635Z,8.03
2018-08-24T12:07:41.524Z,8.20
2018-08-24T12:10:09.247Z,8.63
2018-08-24T12:12:37.190Z,4.90
2018-08-24T12:15:05.067Z,4.57
2018-08-24T12:17:35.536Z,6.20
2018-08-24T12:20:04.104Z,5.23
2018-08-24T12:22:32.263Z,5.67
2018-08-24T12:25:00.233Z,5.57
2018-08-24T12:27:28.048Z,5.00
2018-08-24T12:29:55.867Z,5.47
2018-08-24T12:32:23.787Z,5.35
2018-08-24T12:34:51.655Z,5.07
2018-08-24T12:37:19.556Z,5.83
2018-08-24T12:39:47.451Z,5.70
2018-08-24T12:42:15.359Z,6.27
2018-08-24T12:44:43.259Z,5.23
2018-08-24T12:47:11.989Z,5.60
2018-08-24T12:49:40.386Z,5.83
2018-08-24T12:52:08.434Z,4.57
2018-08-24T12:54:36.236Z,5.53
2018-08-24T12:57:04.475Z,6.00
2018-08-24T12:59:32.328Z,4.77
2018-08-24T13:02:00.143Z,5.00
2018-08-24T13:04:27.938Z,6.27
2018-08-24T13:06:55.739Z,5.17
2018-08-24T13:09:23.539Z,5.50
2018-08-24T13:11:51.283Z,7.17
2018-08-24T13:14:19.104Z,6.63
2018-08-24T13:16:46.981Z,5.13
2018-08-24T13:19:14.789Z,6.00
2018-08-24T13:21:42.679Z,5.07
2018-08-24T13:24:10.463Z,5.27
2018-08-24T13:26:38.244Z,7.27
2018-08-24T13:29:06.241Z,5.37
2018-08-24T13:31:34.024Z,5.23
2018-08-24T13:34:01.826Z,4.97
2018-08-24T13:36:29.615Z,6.87
2018-08-24T13:38:57.486Z,4.33
2018-08-24T13:41:25.220Z,6.43
2018-08-24T13:43:53.063Z,5.27
2018-08-24T13:46:21.717Z,5.23
2018-08-24T13:48:50.524Z,5.97
2018-08-24T13:51:18.355Z,5.07
2018-08-24T13:53:46.479Z,5.97
2018-08-24T13:56:14.839Z,4.77
2018-08-24T13:58:42.663Z,4.97
2018-08-24T14:01:12.114Z,4.50
2018-08-24T14:03:39.883Z,5.53
2018-08-24T14:06:08.123Z,5.60
2018-08-24T14:08:35.991Z,6.20
2018-08-24T14:11:03.788Z,5.77
2018-08-24T14:13:31.650Z,4.67
2018-08-24T14:15:59.414Z,4.63
2018-08-24T14:18:27.216Z,4.33
2018-08-24T14:20:55.052Z,4.17
2018-08-24T14:23:22.820Z,5.63
2018-08-24T14:25:50.617Z,4.90
2018-08-24T14:28:18.488Z,4.93
2018-08-24T14:30:46.304Z,4.23
2018-08-24T14:33:14.139Z,5.90
2018-08-24T14:35:41.945Z,6.30
2018-08-24T14:38:09.819Z,4.90
2018-08-24T14:40:37.673Z,5.80
2018-08-24T14:43:06.271Z,4.33
2018-08-24T14:45:34.615Z,6.03
2018-08-24T14:48:02.546Z,4.17
2018-08-24T14:50:30.254Z,5.97
2018-08-24T14:52:58.091Z,5.87
2018-08-24T14:55:25.889Z,4.47
2018-08-24T14:57:53.728Z,7.80
2018-08-24T15:00:21.523Z,6.77
2018-08-24T15:02:49.367Z,3.80
2018-08-24T15:05:17.155Z,6.37
2018-08-24T15:07:45.045Z,3.33
2018-08-24T15:10:12.869Z,4.77
2018-08-24T15:12:40.731Z,3.80
2018-08-24T15:15:08.683Z,3.57
2018-08-24T15:17:36.416Z,4.43
2018-08-24T15:20:05.336Z,4.23
2018-08-24T15:22:33.565Z,4.80
2018-08-24T15:25:01.397Z,3.77
2018-08-24T15:27:29.603Z,4.17
2018-08-24T15:29:57.878Z,4.43
2018-08-24T15:32:25.999Z,5.67
2018-08-24T15:34:53.783Z,5.23
2018-08-24T15:37:21.681Z,4.00
2018-08-24T15:39:49.476Z,5.10
2018-08-24T15:42:17.314Z,4.57
2018-08-24T15:44:45.133Z,3.87
2018-08-24T15:47:13.592Z,6.23
2018-08-24T15:49:41.870Z,3.40
2018-08-24T15:52:10.109Z,4.40
2018-08-24T15:54:38.141Z,3.87
2018-08-24T15:57:06.240Z,3.97
2018-08-24T15:59:34.090Z,5.85
2018-08-24T16:02:02.724Z,4.33
2018-08-24T16:04:30.677Z,4.33
2018-08-24T16:06:58.523Z,4.33
2018-08-24T16:09:26.283Z,4.73
2018-08-24T16:11:54.244Z,4.77
2018-08-24T16:14:22.295Z,6.17
2018-08-24T16:16:50.068Z,4.20
2018-08-24T16:19:18.212Z,4.97
2018-08-24T16:21:47.142Z,4.57
2018-08-24T16:24:15.128Z,6.27
2018-08-24T16:26:42.883Z,5.90
2018-08-24T16:29:10.813Z,8.27
2018-08-24T16:31:38.705Z,4.57
2018-08-24T16:34:06.998Z,5.10
2018-08-24T16:36:34.908Z,4.87
2018-08-24T16:39:03.315Z,4.80
2018-08-24T16:41:31.272Z,4.50
2018-08-24T16:43:59.040Z,5.20
2018-08-24T16:46:27.020Z,5.50
2018-08-24T16:48:55.004Z,4.13
2018-08-24T16:51:22.823Z,6.97
2018-08-24T16:53:50.770Z,5.33
2018-08-24T16:56:18.801Z,3.17
2018-08-24T16:58:46.889Z,3.70
2018-08-24T17:01:14.776Z,4.40
2018-08-24T17:03:47.200Z,4.97
2018-08-24T17:06:15.016Z,5.90
2018-08-24T17:08:42.763Z,4.90
2018-08-24T17:11:10.764Z,9.50
2018-08-24T17:13:38.527Z,6.23
2018-08-24T17:16:06.399Z,5.60
2018-08-24T17:18:34.125Z,5.73
2018-08-24T17:21:01.923Z,3.80
2018-08-24T17:23:29.676Z,5.93
2018-08-24T17:25:57.519Z,5.93
2018-08-24T17:28:25.464Z,5.17
2018-08-24T17:30:53.315Z,4.33
2018-08-24T17:33:21.188Z,9.97
2018-08-24T17:35:49.186Z,4.87
2018-08-24T17:38:17.074Z,3.67
2018-08-24T17:40:44.865Z,5.50
2018-08-24T17:43:12.661Z,5.87
2018-08-24T17:45:40.496Z,5.00
2018-08-24T17:48:08.293Z,4.30
2018-08-24T17:50:36.116Z,4.67
2018-08-24T17:53:03.967Z,4.93
2018-08-24T17:55:31.825Z,6.77
2018-08-24T17:57:59.815Z,5.03
2018-08-24T18:00:29.696Z,5.40
2018-08-24T18:02:59.621Z,5.03
2018-08-24T18:05:27.811Z,3.97
2018-08-24T18:07:55.882Z,4.03
2018-08-24T18:10:25.344Z,6.43
2018-08-24T18:12:53.263Z,5.47
2018-08-24T18:15:21.188Z,6.83
2018-08-24T18:17:51.338Z,7.83
2018-08-24T18:20:19.371Z,4.77
2018-08-24T18:22:47.251Z,5.27
2018-08-24T18:25:15.013Z,4.00
2018-08-24T18:27:42.836Z,4.80
2018-08-24T18:30:10.719Z,4.30
2018-08-24T18:32:38.661Z,4.73
2018-08-24T18:35:06.652Z,6.03
2018-08-24T18:37:34.422Z,3.60
2018-08-24T18:40:03.042Z,4.63
2018-08-24T18:42:30.883Z,2.43
2018-08-24T18:44:58.792Z,6.20
2018-08-24T18:47:29.609Z,4.90
2018-08-24T18:49:57.511Z,7.87
2018-08-24T18:52:25.317Z,4.43
2018-08-24T18:54:53.591Z,5.73
2018-08-24T18:57:21.412Z,3.57
2018-08-24T18:59:49.264Z,3.87
2018-08-24T19:02:17.382Z,4.03
2018-08-24T19:04:45.232Z,4.63
2018-08-24T19:07:13.132Z,4.67
2018-08-24T19:09:42.403Z,3.03
2018-08-24T19:12:16.247Z,7.33
2018-08-24T19:14:44.543Z,2.80
2018-08-24T19:17:19.948Z,3.73
2018-08-24T19:19:53.540Z,4.27
2018-08-24T19:22:22.768Z,5.53
2018-08-24T19:24:50.652Z,3.90
2018-08-24T19:27:18.485Z,4.33
2018-08-24T19:29:52.631Z,3.23
2018-08-24T19:32:23.764Z,3.20
2018-08-24T19:34:52.915Z,2.20
2018-08-24T19:37:22.695Z,3.43
2018-08-24T19:39:56.378Z,2.23
2018-08-24T19:42:26.160Z,4.10
2018-08-24T19:44:58.110Z,6.00
2018-08-24T19:47:32.374Z,2.53
2018-08-24T19:50:00.245Z,3.10
2018-08-24T19:52:28.280Z,4.67
2018-08-24T19:54:56.056Z,2.97
2018-08-24T19:57:29.499Z,2.20
2018-08-24T19:59:57.320Z,4.87
2018-08-24T20:02:26.939Z,3.47
2018-08-24T20:04:54.702Z,4.60
2018-08-24T20:07:28.292Z,3.90
2018-08-24T20:10:04.084Z,3.90
2018-08-24T20:12:31.879Z,3.50
2018-08-24T20:15:05.414Z,4.40
2018-08-24T20:17:33.191Z,4.13
2018-08-24T20:20:01.062Z,4.80
2018-08-24T20:22:28.928Z,4.47
2018-08-24T20:24:59.582Z,4.43
2018-08-24T20:27:27.480Z,4.43
2018-08-24T20:30:00.612Z,2.67
2018-08-24T20:32:35.266Z,2.77
2018-08-24T20:35:05.231Z,4.23
2018-08-24T20:37:35.802Z,2.60
2018-08-24T20:40:04.530Z,4.03
2018-08-24T20:42:32.264Z,3.20
2018-08-24T20:45:00.107Z,3.57
2018-08-24T20:47:28.006Z,3.33
2018-08-24T20:49:55.711Z,3.03
2018-08-24T20:52:23.707Z,3.93
2018-08-24T20:54:52.448Z,5.27
2018-08-24T20:57:20.215Z,2.13
2018-08-24T20:59:48.278Z,4.83
2018-08-24T21:02:27.323Z,3.10
2018-08-24T21:04:55.333Z,3.67
2018-08-24T21:07:23.149Z,3.30
2018-08-24T21:09:51.734Z,3.70
2018-08-24T21:12:20.006Z,3.73
2018-08-24T21:14:47.887Z,2.30
2018-08-24T21:17:17.995Z,4.00
2018-08-24T21:19:45.896Z,4.80
2018-08-24T21:22:13.618Z,6.67
2018-08-24T21:24:44.456Z,3.93
2018-08-24T21:27:19.526Z,3.03
2018-08-24T21:29:54.856Z,2.87
2018-08-24T21:32:24.361Z,2.90
2018-08-24T21:34:59.137Z,2.87
2018-08-24T21:37:26.931Z,2.57
2018-08-24T21:39:54.747Z,6.47
2018-08-24T21:42:22.513Z,2.87
2018-08-24T21:44:50.291Z,4.83
2018-08-24T21:47:18.152Z,2.70
2018-08-24T21:49:46.008Z,3.50
2018-08-24T21:52:13.913Z,2.97
2018-08-24T21:54:41.686Z,3.87
2018-08-24T21:57:09.512Z,4.13
2018-08-24T21:59:37.328Z,4.03
2018-08-24T22:02:05.225Z,4.57
2018-08-24T22:04:33.097Z,3.33
2018-08-24T22:07:00.888Z,3.97
2018-08-24T22:09:28.632Z,2.40
2018-08-24T22:11:56.433Z,3.07
2018-08-24T22:14:24.256Z,2.73
2018-08-24T22:16:52.080Z,3.93
2018-08-24T22:19:19.808Z,4.53
2018-08-24T22:21:47.567Z,3.40
2018-08-24T22:24:15.376Z,2.70
2018-08-24T22:26:43.286Z,4.17
2018-08-24T22:29:11.096Z,3.77
2018-08-24T22:31:39.280Z,2.50
2018-08-24T22:34:07.032Z,4.20
2018-08-24T22:36:34.943Z,2.40
2018-08-24T22:39:04.239Z,2.63
2018-08-24T22:41:32.107Z,3.93
2018-08-24T22:43:59.945Z,3.80
2018-08-24T22:46:27.714Z,2.83
2018-08-24T22:48:55.500Z,4.13
2018-08-24T22:51:23.339Z,2.00
2018-08-24T22:53:51.199Z,2.97
2018-08-24T22:56:18.983Z,4.03
2018-08-24T22:58:46.707Z,4.17
2018-08-24T23:01:14.528Z,1.73
2018-08-24T23:03:42.351Z,2.90
2018-08-24T23:06:10.159Z,3.73
2018-08-24T23:08:37.967Z,2.17
2018-08-24T23:11:05.920Z,3.07
2018-08-24T23:13:33.655Z,3.17
2018-08-24T23:16:01.500Z,6.93
2018-08-24T23:18:29.292Z,5.67
2018-08-24T23:20:57.063Z,6.60
2018-08-24T23:25:57.011Z,3.30
2018-08-24T23:28:24.871Z,3.27
2018-08-24T23:30:52.671Z,2.10
2018-08-24T23:33:20.475Z,3.90
2018-08-24T23:35:48.272Z,2.83
2018-08-24T23:38:16.263Z,3.50
2018-08-24T23:40:44.095Z,3.07
2018-08-24T23:43:11.857Z,3.27
2018-08-24T23:45:39.609Z,4.40
2018-08-24T23:48:07.395Z,1.50
2018-08-24T23:50:35.292Z,1.17
2018-08-24T23:53:03.179Z,3.77
2018-08-24T23:55:31.013Z,3.23
2018-08-24T23:57:58.839Z,4.87
